createdAt,value
2019-05-29T00:00:03.532Z,3.56
2019-05-29T00:01:02.393Z,4.49
2019-05-29T00:02:03.233Z,4.16
2019-05-29T00:03:02.530Z,4.55
2019-05-29T00:04:03.222Z,6.82
2019-05-29T00:05:02.429Z,5.9
2019-05-29T00:06:03.001Z,7.95
2019-05-29T00:07:02.366Z,3.7
2019-05-29T00:08:02.955Z,3.86
2019-05-29T00:09:03.204Z,4.45
2019-05-29T00:10:02.984Z,3.69
2019-05-29T00:11:02.919Z,3.78
2019-05-29T00:12:02.742Z,3.71
2019-05-29T00:13:03.146Z,2.96
2019-05-29T00:14:17.706Z,4.06
2019-05-29T00:15:03.384Z,7.48
2019-05-29T00:16:02.706Z,5.68
2019-05-29T00:17:03.326Z,4.09
2019-05-29T00:18:02.835Z,3.21
2019-05-29T00:19:03.172Z,3.02
2019-05-29T00:20:02.642Z,6.55
2019-05-29T00:21:02.460Z,4.74
2019-05-29T00:22:02.712Z,4.74
2019-05-29T00:23:03.025Z,3.45
2019-05-29T00:24:03.030Z,5.19
2019-05-29T00:25:02.877Z,4.32
2019-05-29T00:26:02.598Z,4.49
2019-05-29T00:27:03.340Z,4.49
2019-05-29T00:28:02.586Z,5.56
2019-05-29T00:29:02.787Z,3.71
2019-05-29T00:30:02.418Z,5.88
2019-05-29T00:31:03.428Z,6.4
2019-05-29T00:32:02.585Z,5.71
2019-05-29T00:33:02.524Z,4.69
2019-05-29T00:34:03.426Z,3.7
2019-05-29T00:35:02.865Z,3.66
2019-05-29T00:36:02.417Z,4.77
2019-05-29T00:37:02.891Z,3.24
2019-05-29T00:38:02.480Z,5.43
2019-05-29T00:39:03.140Z,3.36
2019-05-29T00:40:02.678Z,4.07
2019-05-29T00:41:02.564Z,3.95
2019-05-29T00:42:03.470Z,4.15
2019-05-29T00:43:02.556Z,5.38
2019-05-29T00:44:03.254Z,5.95
2019-05-29T00:45:02.997Z,6.53
2019-05-29T00:46:03.283Z,4.33
2019-05-29T00:47:02.638Z,4.22
2019-05-29T00:48:03.032Z,5.04
2019-05-29T00:49:02.602Z,3.96
2019-05-29T00:50:03.050Z,7.46
2019-05-29T00:51:02.734Z,4.87
2019-05-29T00:52:03.251Z,6.28
2019-05-29T00:53:02.386Z,4.71
2019-05-29T00:54:03.007Z,4.35
2019-05-29T00:55:03.493Z,4.01
2019-05-29T00:56:02.787Z,3.76
2019-05-29T00:57:02.604Z,3.55
2019-05-29T00:58:03.146Z,3.98
2019-05-29T00:59:02.436Z,2.55
2019-05-29T01:00:03.149Z,4.31
2019-05-29T01:01:03.286Z,3.11
2019-05-29T01:02:03.221Z,4.16
2019-05-29T01:03:02.798Z,3.68
2019-05-29T01:04:03.031Z,4.43
2019-05-29T01:05:02.705Z,5.46
2019-05-29T01:06:03.163Z,3.11
2019-05-29T01:07:03.347Z,5.04
2019-05-29T01:08:02.758Z,5.12
2019-05-29T01:09:03.880Z,5.89
2019-05-29T01:10:02.935Z,4.68
2019-05-29T01:11:03.499Z,4.05
2019-05-29T01:12:02.894Z,4.05
2019-05-29T01:13:02.438Z,4.2
2019-05-29T01:14:03.064Z,4.37
2019-05-29T01:15:03.518Z,4.37
2019-05-29T01:16:03.159Z,5.08
2019-05-29T01:17:03.462Z,3.71
2019-05-29T01:18:02.944Z,4.64
2019-05-29T01:19:03.080Z,4.51
2019-05-29T01:20:02.999Z,3.86
2019-05-29T01:21:03.122Z,5.05
2019-05-29T01:22:02.755Z,8.55
2019-05-29T01:23:02.617Z,4.44
2019-05-29T01:24:02.841Z,4.24
2019-05-29T01:25:03.297Z,4.2
2019-05-29T01:26:02.581Z,7.34
2019-05-29T01:27:03.245Z,4.16
2019-05-29T01:28:02.349Z,5.08
2019-05-29T01:29:03.360Z,5.28
2019-05-29T01:30:02.777Z,4.68
2019-05-29T01:31:02.955Z,7.42
2019-05-29T01:32:02.571Z,5.06
2019-05-29T01:33:02.885Z,6.02
2019-05-29T01:34:02.639Z,3.38
2019-05-29T01:35:03.183Z,4.62
2019-05-29T01:36:02.646Z,3.95
2019-05-29T01:37:02.878Z,6.09
2019-05-29T01:38:03.252Z,7.15
2019-05-29T01:39:02.541Z,4.26
2019-05-29T01:40:16.517Z,4.9
2019-05-29T01:41:02.553Z,4.46
2019-05-29T01:42:03.048Z,6.05
2019-05-29T01:43:03.076Z,3.9
2019-05-29T01:44:03.235Z,4.94
2019-05-29T01:45:07.507Z,4.63
2019-05-29T01:46:02.912Z,9.55
2019-05-29T01:47:02.810Z,7.61
2019-05-29T01:48:03.006Z,5.44
2019-05-29T01:49:02.714Z,4.31
2019-05-29T01:50:02.931Z,7.23
2019-05-29T01:51:02.554Z,5.09
2019-05-29T01:52:02.774Z,4.89
2019-05-29T01:53:03.348Z,9.96
2019-05-29T01:54:02.742Z,5.22
2019-05-29T01:55:03.279Z,4.82
2019-05-29T01:56:02.656Z,7.22
2019-05-29T01:57:03.018Z,6.45
2019-05-29T01:58:02.615Z,10.87
2019-05-29T01:59:03.131Z,4.89
2019-05-29T02:00:02.789Z,6.49
2019-05-29T02:01:03.312Z,4.89
2019-05-29T02:02:02.864Z,4.89
2019-05-29T02:03:03.240Z,6.14
2019-05-29T02:04:02.525Z,6.14
2019-05-29T02:05:03.310Z,4.68
2019-05-29T02:06:02.753Z,4.75
2019-05-29T02:07:03.611Z,4.75
2019-05-29T02:08:02.380Z,6.66
2019-05-29T02:09:02.856Z,6.43
2019-05-29T02:10:03.487Z,6.43
2019-05-29T02:11:03.084Z,8.48
2019-05-29T02:12:03.513Z,7.69
2019-05-29T02:13:02.560Z,5.21
2019-05-29T02:14:03.290Z,4.26
2019-05-29T02:15:02.849Z,4.19
2019-05-29T02:16:03.291Z,5.01
2019-05-29T02:17:02.740Z,3.99
2019-05-29T02:18:03.268Z,4.99
2019-05-29T02:19:03.032Z,8.37
2019-05-29T02:20:03.149Z,4.48
2019-05-29T02:21:02.735Z,6.39
2019-05-29T02:22:03.252Z,6.76
2019-05-29T02:23:02.489Z,8.95
2019-05-29T02:24:03.155Z,7.85
2019-05-29T02:25:02.642Z,10.46
2019-05-29T02:26:03.281Z,7.78
2019-05-29T02:27:02.621Z,7.58
2019-05-29T02:28:03.021Z,5.43
2019-05-29T02:29:02.533Z,8.19
2019-05-29T02:30:03.044Z,5.15
2019-05-29T02:31:02.733Z,4.58
2019-05-29T02:32:03.239Z,5.29
2019-05-29T02:33:02.825Z,10.56
2019-05-29T02:34:07.094Z,6.79
2019-05-29T02:35:02.767Z,4.92
2019-05-29T02:36:03.088Z,6.65
2019-05-29T02:37:02.875Z,9.7
2019-05-29T02:38:03.454Z,5.19
2019-05-29T02:39:03.015Z,9.28
2019-05-29T02:40:03.307Z,6.88
2019-05-29T02:41:02.308Z,5.27
2019-05-29T02:42:03.065Z,10.15
2019-05-29T02:43:02.645Z,7
2019-05-29T02:44:03.091Z,5.21
2019-05-29T02:45:02.679Z,5.25
2019-05-29T02:46:03.061Z,6.49
2019-05-29T02:47:02.779Z,7.53
2019-05-29T02:48:03.013Z,10.03
2019-05-29T02:49:02.506Z,9.48
2019-05-29T02:50:02.890Z,11.88
2019-05-29T02:51:02.521Z,7.75
2019-05-29T02:52:02.683Z,7.75
2019-05-29T02:53:03.223Z,5.97
2019-05-29T02:54:02.469Z,8.19
2019-05-29T02:55:03.293Z,8.19
2019-05-29T02:56:02.357Z,8.73
2019-05-29T02:57:02.977Z,5.04
2019-05-29T02:58:03.311Z,6.74
2019-05-29T02:59:02.882Z,9.9
2019-05-29T03:00:03.531Z,5.96
2019-05-29T03:01:02.726Z,5.82
2019-05-29T03:02:02.342Z,4.86
2019-05-29T03:03:02.934Z,10.21
2019-05-29T03:04:03.229Z,4.93
2019-05-29T03:05:02.819Z,7.34
2019-05-29T03:06:03.077Z,6.13
2019-05-29T03:07:02.851Z,5.28
2019-05-29T03:08:03.242Z,10.22
2019-05-29T03:09:02.827Z,7.25
2019-05-29T03:10:03.250Z,5.84
2019-05-29T03:11:03.369Z,7.42
2019-05-29T03:12:03.166Z,6.49
2019-05-29T03:13:03.064Z,8.49
2019-05-29T03:14:03.172Z,9.76
2019-05-29T03:15:02.652Z,7.06
2019-05-29T03:16:11.009Z,6.41
2019-05-29T03:17:02.963Z,10.25
2019-05-29T03:18:02.794Z,7.78
2019-05-29T03:19:03.203Z,7.51
2019-05-29T03:20:02.920Z,7.75
2019-05-29T03:21:03.206Z,6.2
2019-05-29T03:22:02.646Z,8.89
2019-05-29T03:23:03.104Z,7.76
2019-05-29T03:24:02.998Z,7.96
2019-05-29T03:25:02.847Z,5.55
2019-05-29T03:26:02.980Z,10.72
2019-05-29T03:27:02.786Z,5.59
2019-05-29T03:28:03.118Z,6.72
2019-05-29T03:29:02.686Z,6.19
2019-05-29T03:30:02.997Z,6.99
2019-05-29T03:31:02.858Z,6.64
2019-05-29T03:32:02.862Z,7.83
2019-05-29T03:33:02.700Z,6.16
2019-05-29T03:34:03.134Z,5.94
2019-05-29T03:35:02.627Z,9.11
2019-05-29T03:36:02.984Z,8.64
2019-05-29T03:37:02.351Z,10.61
2019-05-29T03:38:02.805Z,8.7
2019-05-29T03:39:02.602Z,8.08
2019-05-29T03:40:02.950Z,5.88
2019-05-29T03:41:03.067Z,8.4
2019-05-29T03:42:03.021Z,7.68
2019-05-29T03:43:02.478Z,6.82
2019-05-29T03:44:02.621Z,6.82
2019-05-29T03:45:02.478Z,7.38
2019-05-29T03:46:02.507Z,7.02
2019-05-29T03:47:02.473Z,7.02
2019-05-29T03:48:02.715Z,6.48
2019-05-29T03:49:02.997Z,7.61
2019-05-29T03:50:02.680Z,7.61
2019-05-29T03:51:02.883Z,6.78
2019-05-29T03:52:02.585Z,6.34
2019-05-29T03:53:02.911Z,8.29
2019-05-29T03:54:02.593Z,7.65
2019-05-29T03:55:03.383Z,9.52
2019-05-29T03:56:03.223Z,6.42
2019-05-29T03:57:03.065Z,7.28
2019-05-29T03:58:03.385Z,7.03
2019-05-29T03:59:02.840Z,6.59
2019-05-29T04:00:02.615Z,8.39
2019-05-29T04:01:02.655Z,6.81
2019-05-29T04:02:03.497Z,7.32
2019-05-29T04:03:02.600Z,7.9
2019-05-29T04:04:02.535Z,9.11
2019-05-29T04:05:02.801Z,8.49
2019-05-29T04:06:02.917Z,6.82
2019-05-29T04:07:02.576Z,8.29
2019-05-29T04:08:02.877Z,10.01
2019-05-29T04:09:02.508Z,7.97
2019-05-29T04:10:03.072Z,7.57
2019-05-29T04:11:02.662Z,7.06
2019-05-29T04:12:02.915Z,7.06
2019-05-29T04:13:02.602Z,7.41
2019-05-29T04:14:02.989Z,7.25
2019-05-29T04:15:03.302Z,9.56
2019-05-29T04:16:02.591Z,8.86
2019-05-29T04:17:02.648Z,8.68
2019-05-29T04:18:02.870Z,15.44
2019-05-29T04:19:03.247Z,8.28
2019-05-29T04:20:03.251Z,8.6
2019-05-29T04:21:03.425Z,7.2
2019-05-29T04:22:03.240Z,5.46
2019-05-29T04:23:02.602Z,6.83
2019-05-29T04:24:02.713Z,6.55
2019-05-29T04:25:03.247Z,11.64
2019-05-29T04:26:02.486Z,7.54
2019-05-29T04:27:02.728Z,6.95
2019-05-29T04:28:03.186Z,9.91
2019-05-29T04:29:02.906Z,9.98
2019-05-29T04:30:03.346Z,7.44
2019-05-29T04:31:02.990Z,7.42
2019-05-29T04:32:03.073Z,8.68
2019-05-29T04:33:02.638Z,9.93
2019-05-29T04:34:02.940Z,7.7
2019-05-29T04:35:02.675Z,7.7
2019-05-29T04:36:03.009Z,8.05
2019-05-29T04:37:02.405Z,7.16
2019-05-29T04:38:03.216Z,7.16
2019-05-29T04:39:02.521Z,10.51
2019-05-29T04:40:03.121Z,16.09
2019-05-29T04:41:02.317Z,7.06
2019-05-29T04:42:02.832Z,9.16
2019-05-29T04:43:03.452Z,6.95
2019-05-29T04:44:02.679Z,7.48
2019-05-29T04:45:02.359Z,6.78
2019-05-29T04:46:03.384Z,8.47
2019-05-29T04:47:10.717Z,8.44
2019-05-29T04:48:02.550Z,8.59
2019-05-29T04:49:02.953Z,9.19
2019-05-29T04:50:02.674Z,6.69
2019-05-29T04:51:02.924Z,7.67
2019-05-29T04:52:03.350Z,12.17
2019-05-29T04:53:02.555Z,8.92
2019-05-29T04:54:03.062Z,8.39
2019-05-29T04:55:03.014Z,7.22
2019-05-29T04:56:03.285Z,9.24
2019-05-29T04:57:03.077Z,7.84
2019-05-29T04:58:03.189Z,8.29
2019-05-29T04:59:02.836Z,7.71
2019-05-29T05:00:03.449Z,7.18
2019-05-29T05:01:02.848Z,8.01
2019-05-29T05:02:03.207Z,6.41
2019-05-29T05:03:03.257Z,10.34
2019-05-29T05:04:02.451Z,7.03
2019-05-29T05:05:03.021Z,6.56
2019-05-29T05:06:02.982Z,6.13
2019-05-29T05:07:02.706Z,9.65
2019-05-29T05:08:03.444Z,9.05
2019-05-29T05:09:02.696Z,10
2019-05-29T05:10:02.929Z,10.79
2019-05-29T05:11:02.622Z,7.98
2019-05-29T05:12:03.308Z,9.48
2019-05-29T05:13:02.581Z,8.72
2019-05-29T05:14:03.014Z,9.89
2019-05-29T05:15:03.299Z,8.42
2019-05-29T05:16:02.984Z,10.73
2019-05-29T05:17:03.210Z,7.01
2019-05-29T05:18:02.608Z,7.38
2019-05-29T05:19:02.470Z,7.04
2019-05-29T05:20:02.649Z,6.85
2019-05-29T05:21:02.515Z,7.99
2019-05-29T05:22:02.687Z,8.24
2019-05-29T05:23:03.246Z,8.24
2019-05-29T05:24:02.759Z,12.09
2019-05-29T05:25:03.014Z,6.42
2019-05-29T05:26:02.593Z,6.42
2019-05-29T05:27:03.075Z,6.66
2019-05-29T05:28:02.694Z,6.66
2019-05-29T05:29:02.950Z,9.19
2019-05-29T05:30:02.757Z,9.83
2019-05-29T05:31:02.847Z,11.39
2019-05-29T05:32:02.496Z,7.78
2019-05-29T05:33:02.983Z,8.79
2019-05-29T05:34:02.687Z,8.69
2019-05-29T05:35:02.991Z,7.35
2019-05-29T05:36:02.354Z,8.75
2019-05-29T05:37:02.628Z,10.5
2019-05-29T05:38:02.527Z,12.15
2019-05-29T05:39:02.934Z,8.78
2019-05-29T05:40:03.097Z,6.83
2019-05-29T05:41:02.666Z,6.91
2019-05-29T05:42:02.890Z,7.81
2019-05-29T05:43:03.163Z,8.51
2019-05-29T05:44:03.252Z,10.24
2019-05-29T05:45:03.269Z,7.73
2019-05-29T05:46:02.482Z,7.19
2019-05-29T05:47:02.601Z,9.79
2019-05-29T05:48:02.696Z,7.37
2019-05-29T05:49:02.972Z,8.24
2019-05-29T05:50:02.555Z,8.2
2019-05-29T05:51:02.789Z,8.52
2019-05-29T05:52:02.528Z,8.25
2019-05-29T05:53:03.534Z,7.67
2019-05-29T05:54:02.950Z,13.26
2019-05-29T05:55:03.017Z,7.12
2019-05-29T05:56:03.099Z,7.53
2019-05-29T05:57:03.159Z,9.97
2019-05-29T05:58:02.919Z,7.98
2019-05-29T05:59:03.070Z,9.68
2019-05-29T06:00:03.464Z,8.19
2019-05-29T06:01:02.883Z,8.14
2019-05-29T06:02:02.371Z,8.22
2019-05-29T06:03:02.623Z,8.75
2019-05-29T06:04:03.208Z,10.83
2019-05-29T06:05:02.825Z,7.94
2019-05-29T06:06:03.485Z,7.67
2019-05-29T06:07:02.877Z,8.08
2019-05-29T06:08:02.647Z,10.3
2019-05-29T06:09:02.875Z,8.21
2019-05-29T06:10:03.364Z,7.5
2019-05-29T06:11:02.415Z,10.68
2019-05-29T06:12:03.155Z,8.88
2019-05-29T06:13:02.682Z,8.96
2019-05-29T06:14:03.080Z,8.37
2019-05-29T06:15:02.522Z,8.37
2019-05-29T06:16:03.156Z,8.19
2019-05-29T06:17:02.380Z,8.12
2019-05-29T06:18:19.717Z,8.12
2019-05-29T06:19:02.686Z,7.96
2019-05-29T06:20:03.074Z,11.12
2019-05-29T06:21:03.422Z,7.78
2019-05-29T06:22:03.087Z,11.68
2019-05-29T06:23:02.655Z,9.99
2019-05-29T06:24:02.909Z,13.13
2019-05-29T06:25:03.453Z,8.57
2019-05-29T06:26:02.645Z,7.41
2019-05-29T06:27:02.998Z,9.26
2019-05-29T06:28:02.666Z,7.85
2019-05-29T06:29:03.127Z,9.96
2019-05-29T06:30:03.483Z,8.72
2019-05-29T06:31:03.317Z,7.99
2019-05-29T06:32:03.346Z,9.12
2019-05-29T06:33:02.938Z,7.83
2019-05-29T06:34:03.231Z,7.79
2019-05-29T06:35:02.744Z,9.16
2019-05-29T06:36:03.090Z,9.98
2019-05-29T06:37:03.166Z,8.95
2019-05-29T06:38:03.098Z,10.36
2019-05-29T06:39:02.781Z,8.26
2019-05-29T06:40:03.231Z,7.81
2019-05-29T06:41:02.600Z,9.79
2019-05-29T06:42:02.830Z,10.95
2019-05-29T06:43:03.192Z,13.66
2019-05-29T06:44:02.760Z,8.7
2019-05-29T06:45:03.325Z,8.58
2019-05-29T06:46:02.603Z,8.66
2019-05-29T06:47:03.302Z,9.45
2019-05-29T06:48:02.936Z,9.81
2019-05-29T06:49:02.534Z,8.39
2019-05-29T06:50:03.305Z,7.68
2019-05-29T06:51:03.195Z,7.95
2019-05-29T06:52:02.625Z,8.57
2019-05-29T06:53:02.832Z,9.86
2019-05-29T06:54:02.832Z,9.22
2019-05-29T06:55:02.922Z,9.54
2019-05-29T06:56:03.080Z,8.68
2019-05-29T06:57:03.443Z,10.11
2019-05-29T06:58:02.951Z,8.22
2019-05-29T06:59:02.922Z,8.82
2019-05-29T07:00:02.655Z,8.29
2019-05-29T07:01:02.448Z,9.26
2019-05-29T07:02:02.857Z,9.22
2019-05-29T07:03:03.436Z,9.22
2019-05-29T07:04:11.665Z,8.31
2019-05-29T07:05:03.542Z,8.61
2019-05-29T07:06:02.788Z,8.61
2019-05-29T07:07:03.254Z,9.16
2019-05-29T07:08:17.748Z,8.51
2019-05-29T07:09:03.180Z,8.51
2019-05-29T07:10:02.802Z,8.8
2019-05-29T07:11:02.835Z,14.45
2019-05-29T07:12:03.395Z,8.92
2019-05-29T07:13:03.193Z,7.86
2019-05-29T07:14:02.555Z,9.84
2019-05-29T07:15:03.072Z,10.53
2019-05-29T07:16:03.360Z,9.41
2019-05-29T07:17:02.767Z,8.7
2019-05-29T07:18:03.358Z,7.85
2019-05-29T07:19:24.486Z,9.91
2019-05-29T07:20:03.927Z,7.68
2019-05-29T07:21:03.038Z,11.45
2019-05-29T07:22:02.906Z,7.84
2019-05-29T07:23:02.528Z,10.42
2019-05-29T07:24:02.829Z,11.62
2019-05-29T07:25:02.587Z,9.52
2019-05-29T07:26:03.098Z,7.53
2019-05-29T07:27:02.857Z,9.66
2019-05-29T07:28:03.150Z,9.01
2019-05-29T07:29:08.209Z,10.26
2019-05-29T07:30:03.212Z,8.54
2019-05-29T07:31:03.789Z,9.32
2019-05-29T07:32:03.334Z,9.04
2019-05-29T07:33:02.461Z,13.06
2019-05-29T07:34:02.886Z,8.98
2019-05-29T07:35:04.086Z,10.42
2019-05-29T07:36:03.361Z,9.55
2019-05-29T07:37:02.730Z,10.85
2019-05-29T07:38:03.527Z,10.04
2019-05-29T07:39:03.438Z,8.88
2019-05-29T07:40:02.586Z,11.22
2019-05-29T07:41:02.533Z,8.65
2019-05-29T07:42:02.617Z,8.95
2019-05-29T07:43:03.429Z,8.54
2019-05-29T07:44:02.859Z,8.66
2019-05-29T07:45:03.548Z,10.28
2019-05-29T07:46:02.833Z,9.84
2019-05-29T07:47:02.652Z,7.83
2019-05-29T07:48:03.332Z,9.45
2019-05-29T07:49:03.166Z,8.54
2019-05-29T07:50:02.951Z,12.98
2019-05-29T07:51:06.787Z,8.88
2019-05-29T07:52:02.878Z,9.06
2019-05-29T07:53:03.412Z,12.48
2019-05-29T07:54:02.545Z,12.48
2019-05-29T07:55:02.935Z,11.42
2019-05-29T07:56:03.441Z,8.68
2019-05-29T07:57:02.823Z,9.95
2019-05-29T07:58:02.728Z,9.95
2019-05-29T07:59:03.754Z,8.8
2019-05-29T08:00:02.568Z,10.79
2019-05-29T08:01:12.611Z,10.79
2019-05-29T08:02:02.888Z,8.58
2019-05-29T08:03:03.565Z,8.04
2019-05-29T08:04:03.040Z,8.04
2019-05-29T08:05:03.456Z,7.25
2019-05-29T08:06:03.160Z,7.81
2019-05-29T08:07:02.787Z,9.75
2019-05-29T08:08:02.920Z,8.74
2019-05-29T08:09:02.851Z,8.72
2019-05-29T08:10:02.897Z,9.58
2019-05-29T08:11:02.625Z,7.65
2019-05-29T08:12:03.254Z,9.18
2019-05-29T08:13:02.974Z,7.72
2019-05-29T08:14:03.012Z,12.57
2019-05-29T08:15:02.569Z,7.49
2019-05-29T08:16:03.492Z,7.19
2019-05-29T08:17:03.031Z,8.18
2019-05-29T08:18:03.411Z,6.04
2019-05-29T08:19:02.430Z,7.69
2019-05-29T08:20:07.245Z,6.96
2019-05-29T08:21:02.580Z,9.89
2019-05-29T08:22:03.205Z,7.26
2019-05-29T08:23:02.710Z,8.38
2019-05-29T08:24:02.526Z,7.75
2019-05-29T08:25:02.607Z,8.3
2019-05-29T08:26:03.115Z,8.61
2019-05-29T08:27:03.361Z,9.39
2019-05-29T08:28:02.891Z,8.83
2019-05-29T08:29:02.654Z,9.52
2019-05-29T08:30:03.558Z,7.75
2019-05-29T08:31:03.371Z,11.01
2019-05-29T08:32:03.120Z,7.87
2019-05-29T08:33:03.080Z,7.03
2019-05-29T08:34:02.892Z,8.34
2019-05-29T08:35:03.549Z,6.57
2019-05-29T08:36:02.863Z,6.59
2019-05-29T08:37:06.791Z,6.52
2019-05-29T08:38:03.010Z,9.95
2019-05-29T08:39:03.167Z,6.55
2019-05-29T08:40:03.116Z,7.92
2019-05-29T08:41:05.866Z,7.66
2019-05-29T08:42:21.759Z,9.04
2019-05-29T08:43:03.441Z,7.17
2019-05-29T08:44:02.858Z,8.78
2019-05-29T08:45:02.620Z,8.39
2019-05-29T08:46:03.041Z,8.39
2019-05-29T08:47:09.940Z,8.06
2019-05-29T08:48:02.752Z,9.66
2019-05-29T08:49:03.358Z,9.66
2019-05-29T08:50:17.080Z,7.52
2019-05-29T08:51:03.346Z,9.81
2019-05-29T08:52:11.527Z,7.26
2019-05-29T08:53:02.742Z,7.34
2019-05-29T08:54:02.795Z,6.84
2019-05-29T08:55:02.989Z,9.82
2019-05-29T08:56:02.554Z,7.94
2019-05-29T08:57:02.839Z,7.14
2019-05-29T08:58:03.257Z,7.64
2019-05-29T08:59:02.728Z,6.77
2019-05-29T09:00:03.663Z,9.51
2019-05-29T09:01:02.780Z,7.02
2019-05-29T09:02:03.441Z,7.3
2019-05-29T09:03:02.987Z,7.04
2019-05-29T09:04:02.972Z,9.82
2019-05-29T09:05:03.065Z,6.69
2019-05-29T09:06:08.750Z,8.72
2019-05-29T09:07:02.621Z,7.8
2019-05-29T09:08:02.852Z,7.27
2019-05-29T09:09:02.786Z,7.65
2019-05-29T09:10:03.028Z,6.48
2019-05-29T09:11:03.611Z,7.62
2019-05-29T09:12:02.926Z,6.62
2019-05-29T09:13:04.988Z,10.62
2019-05-29T09:14:02.957Z,8.57
2019-05-29T09:15:03.522Z,7.54
2019-05-29T09:16:02.940Z,7.7
2019-05-29T09:17:03.632Z,7.54
2019-05-29T09:18:02.644Z,7.08
2019-05-29T09:19:03.211Z,8.31
2019-05-29T09:20:03.123Z,7.61
2019-05-29T09:21:04.113Z,7.92
2019-05-29T09:22:02.737Z,8.56
2019-05-29T09:23:02.634Z,9.98
2019-05-29T09:24:02.879Z,9.98
2019-05-29T09:25:02.411Z,8.52
2019-05-29T09:26:13.923Z,9.32
2019-05-29T09:27:02.194Z,7.18
2019-05-29T09:28:03.188Z,7.92
2019-05-29T09:29:02.494Z,7.35
2019-05-29T09:30:03.198Z,7.11
2019-05-29T09:31:02.431Z,7.89
2019-05-29T09:32:03.420Z,6.96
2019-05-29T09:33:02.518Z,7.6
2019-05-29T09:34:03.298Z,7.36
2019-05-29T09:35:02.961Z,7.21
2019-05-29T09:36:03.087Z,7.25
2019-05-29T09:37:02.747Z,7.24
2019-05-29T09:38:03.178Z,7.24
2019-05-29T09:39:02.565Z,6.91
2019-05-29T09:40:02.946Z,6.61
2019-05-29T09:41:02.698Z,6.61
2019-05-29T09:42:03.262Z,7.51
2019-05-29T09:43:02.730Z,6.44
2019-05-29T09:44:03.127Z,7.75
2019-05-29T09:45:03.152Z,6.78
2019-05-29T09:46:03.323Z,8.43
2019-05-29T09:47:02.519Z,7.06
2019-05-29T09:48:03.049Z,7.6
2019-05-29T09:49:02.648Z,6.99
2019-05-29T09:50:03.259Z,8.37
2019-05-29T09:51:20.203Z,7.07
2019-05-29T09:52:04.131Z,9.14
2019-05-29T09:53:04.139Z,7.32
2019-05-29T09:54:03.399Z,10.02
2019-05-29T09:55:02.664Z,6.69
2019-05-29T09:56:03.479Z,6.82
2019-05-29T09:57:03.207Z,7.91
2019-05-29T09:58:02.884Z,7.28
2019-05-29T09:59:03.854Z,8
2019-05-29T10:00:04.146Z,6.74
2019-05-29T10:01:16.952Z,8.94
2019-05-29T10:02:05.633Z,7.15
2019-05-29T10:03:03.883Z,7.21
2019-05-29T10:04:05.883Z,7.21
2019-05-29T10:05:04.110Z,7.06
2019-05-29T10:06:04.221Z,6.88
2019-05-29T10:07:04.780Z,5.81
2019-05-29T10:08:04.308Z,5.94
2019-05-29T10:09:03.729Z,6.24
2019-05-29T10:10:03.461Z,6.65
2019-05-29T10:11:08.342Z,7.46
2019-05-29T10:12:05.216Z,12.02
2019-05-29T10:13:04.400Z,9.18
2019-05-29T10:14:04.935Z,8.35
2019-05-29T10:15:04.381Z,8.29
2019-05-29T10:16:02.912Z,8.54
2019-05-29T10:17:07.922Z,8.7
2019-05-29T10:18:07.254Z,8.71
2019-05-29T10:19:03.207Z,8.82
2019-05-29T10:20:03.327Z,9.06
2019-05-29T10:21:03.194Z,9.85
2019-05-29T10:22:03.958Z,8.61
2019-05-29T10:23:03.263Z,9.03
2019-05-29T10:24:03.976Z,9.03
2019-05-29T10:25:03.637Z,10.14
2019-05-29T10:26:03.448Z,10.14
2019-05-29T10:27:04.522Z,11.03
2019-05-29T10:28:05.910Z,8.88
2019-05-29T10:29:08.559Z,8.88
2019-05-29T10:30:03.580Z,7.63
2019-05-29T10:31:03.856Z,10.16
2019-05-29T10:32:03.180Z,8.44
2019-05-29T10:33:02.780Z,11
2019-05-29T10:34:03.107Z,9.44
2019-05-29T10:35:02.590Z,10.35
2019-05-29T10:36:04.145Z,16.17
2019-05-29T10:37:02.511Z,9.71
2019-05-29T10:38:03.244Z,11.96
2019-05-29T10:39:03.026Z,9.75
2019-05-29T10:40:02.705Z,9.48
2019-05-29T10:41:06.534Z,10.16
2019-05-29T10:42:02.703Z,11.05
2019-05-29T10:43:02.694Z,9.92
2019-05-29T10:44:03.230Z,9.13
2019-05-29T10:45:03.520Z,12.28
2019-05-29T10:46:03.192Z,10.38
2019-05-29T10:47:03.187Z,10.61
2019-05-29T10:48:02.995Z,10.64
2019-05-29T10:49:04.665Z,13.15
2019-05-29T10:50:03.324Z,9.37
2019-05-29T10:51:02.609Z,9.48
2019-05-29T10:52:14.340Z,9.84
2019-05-29T10:53:03.400Z,11.35
2019-05-29T10:54:03.458Z,18.22
2019-05-29T10:55:02.792Z,3.79
2019-05-29T10:56:03.010Z,11.47
2019-05-29T10:57:03.382Z,2.85
2019-05-29T10:58:03.207Z,2.99
2019-05-29T10:59:02.358Z,2.56
2019-05-29T11:00:03.206Z,6.05
2019-05-29T11:01:03.245Z,2.22
2019-05-29T11:02:03.051Z,1.9
2019-05-29T11:03:02.950Z,1.46
2019-05-29T11:04:02.887Z,5.18
2019-05-29T11:05:03.455Z,2.03
2019-05-29T11:06:03.185Z,1.45
2019-05-29T11:07:02.742Z,1.71
2019-05-29T11:08:02.906Z,1.4
2019-05-29T11:09:03.261Z,1.41
2019-05-29T11:10:03.361Z,1.21
2019-05-29T11:11:02.790Z,2.03
2019-05-29T11:12:03.023Z,1.69
2019-05-29T11:13:02.688Z,2.84
2019-05-29T11:14:02.453Z,1.82
2019-05-29T11:15:17.681Z,1.52
2019-05-29T11:16:02.365Z,2.02
2019-05-29T11:17:03.121Z,3.51
2019-05-29T11:18:02.596Z,3.51
2019-05-29T11:19:02.991Z,1.75
2019-05-29T11:20:02.440Z,1.66
2019-05-29T11:21:03.185Z,1.59
2019-05-29T11:22:22.848Z,3.08
2019-05-29T11:23:02.831Z,1.49
2019-05-29T11:24:03.099Z,1.71
2019-05-29T11:25:20.914Z,1.48
2019-05-29T11:26:03.358Z,3.96
2019-05-29T11:27:02.900Z,1.55
2019-05-29T11:28:03.740Z,2.78
2019-05-29T11:29:02.761Z,1.71
2019-05-29T11:30:03.147Z,2.05
2019-05-29T11:31:05.851Z,1.85
2019-05-29T11:32:02.777Z,2.03
2019-05-29T11:33:03.239Z,3.45
2019-05-29T11:34:02.897Z,1.72
2019-05-29T11:35:03.107Z,1.88
2019-05-29T11:36:10.486Z,2.3
2019-05-29T11:37:02.990Z,2.18
2019-05-29T11:38:02.997Z,2.32
2019-05-29T11:39:05.662Z,2.51
2019-05-29T11:40:03.320Z,3.05
2019-05-29T11:41:23.346Z,2.27
2019-05-29T11:42:03.188Z,2.24
2019-05-29T11:43:03.262Z,2.12
2019-05-29T11:44:03.428Z,2.25
2019-05-29T11:45:03.768Z,2.29
2019-05-29T11:46:03.192Z,3.08
2019-05-29T11:47:03.012Z,2.82
2019-05-29T11:48:04.946Z,2.13
2019-05-29T11:49:03.584Z,2.24
2019-05-29T11:50:17.915Z,2.14
2019-05-29T11:51:02.838Z,2.71
2019-05-29T11:52:21.326Z,2.65
2019-05-29T11:53:03.540Z,2.45
2019-05-29T11:54:02.846Z,2.62
2019-05-29T11:55:07.648Z,3.74
2019-05-29T11:56:02.790Z,2.78
2019-05-29T11:57:03.356Z,2.91
2019-05-29T11:58:02.743Z,3.44
2019-05-29T11:59:03.148Z,2.94
2019-05-29T12:00:13.925Z,2.86
2019-05-29T12:01:03.174Z,3.41
2019-05-29T12:02:03.304Z,5.51
2019-05-29T12:03:02.440Z,5.51
2019-05-29T12:04:22.242Z,2.91
2019-05-29T12:05:03.821Z,3.7
2019-05-29T12:06:03.348Z,3.54
2019-05-29T12:07:02.431Z,3.04
2019-05-29T12:08:02.423Z,3.04
2019-05-29T12:09:02.579Z,4.6
2019-05-29T12:10:04.668Z,4.6
2019-05-29T12:11:03.150Z,5.81
2019-05-29T12:12:03.001Z,3.46
2019-05-29T12:13:03.381Z,3.11
2019-05-29T12:14:02.617Z,3.19
2019-05-29T12:15:10.782Z,3.83
2019-05-29T12:16:02.607Z,7.25
2019-05-29T12:17:02.930Z,3.76
2019-05-29T12:18:19.769Z,3.52
2019-05-29T12:19:02.605Z,3.59
2019-05-29T12:20:04.170Z,4.22
2019-05-29T12:21:03.266Z,4.38
2019-05-29T12:22:03.090Z,4.08
2019-05-29T12:23:25.452Z,3.89
2019-05-29T12:24:02.758Z,4.05
2019-05-29T12:25:03.382Z,3.67
2019-05-29T12:26:19.383Z,4.04
2019-05-29T12:27:03.420Z,4.65
2019-05-29T12:28:03.389Z,3.87
2019-05-29T12:29:10.963Z,4.44
2019-05-29T12:30:03.245Z,3.71
2019-05-29T12:31:03.480Z,4.57
2019-05-29T12:32:08.060Z,3.66
2019-05-29T12:33:03.247Z,4.72
2019-05-29T12:34:11.873Z,3.87
2019-05-29T12:35:03.447Z,4.27
2019-05-29T12:36:03.305Z,3.68
2019-05-29T12:37:03.854Z,3.42
2019-05-29T12:38:03.506Z,3.75
2019-05-29T12:39:04.109Z,6.08
2019-05-29T12:40:03.774Z,4.03
2019-05-29T12:41:03.802Z,3.42
2019-05-29T12:42:03.749Z,4.12
2019-05-29T12:43:03.731Z,4.14
2019-05-29T12:44:03.632Z,3.61
2019-05-29T12:45:04.236Z,5.06
2019-05-29T12:46:03.989Z,7.36
2019-05-29T12:47:04.210Z,4.56
2019-05-29T12:48:06.264Z,4.58
2019-05-29T12:49:03.783Z,5.38
2019-05-29T12:50:04.313Z,4.36
2019-05-29T12:51:04.088Z,3.39
2019-05-29T12:52:07.088Z,4.2
2019-05-29T12:53:03.921Z,3.97
2019-05-29T12:54:05.131Z,3.7
2019-05-29T12:55:04.212Z,4.8
2019-05-29T12:56:04.559Z,3.96
2019-05-29T12:57:02.507Z,4.07
2019-05-29T12:58:04.309Z,4.07
2019-05-29T12:59:04.616Z,4.75
2019-05-29T13:00:04.273Z,4.75
2019-05-29T13:01:03.043Z,4.42
2019-05-29T13:02:02.809Z,5.59
2019-05-29T13:03:03.070Z,5.59
2019-05-29T13:04:04.588Z,4.94
2019-05-29T13:05:08.200Z,4.32
2019-05-29T13:06:03.045Z,4.32
2019-05-29T13:07:04.567Z,4.68
2019-05-29T13:08:03.209Z,4.51
2019-05-29T13:09:04.793Z,4.33
2019-05-29T13:10:02.849Z,4.56
2019-05-29T13:11:03.200Z,7.11
2019-05-29T13:12:02.676Z,5.73
2019-05-29T13:13:08.340Z,4.74
2019-05-29T13:14:02.769Z,5.24
2019-05-29T13:15:03.637Z,5.16
2019-05-29T13:16:03.314Z,5.05
2019-05-29T13:17:03.152Z,5.46